Time;durP1;ratioP1;P1;durP2;ratioP2;P2;SDS_P1;SDS_P2;PMS_P1;PMS_P2;Temp;Humidity;BMP_temperature;BMP_pressure;BME280_temperature;BME280_humidity;BME280_pressure;Samples;Min_cycle;Max_cycle;Signal;HPM_P1;HPM_P2
2022/03/10 00:02:20;;;;;;;20.40;7.35;;;;;;;11.80;100.00;98969.50;6170232;23;20046;-89
2022/03/10 00:04:46;;;;;;;13.73;6.95;;;;;;;11.80;100.00;98963.41;6222730;23;20343;-85
2022/03/10 00:07:12;;;;;;;12.98;6.55;;;;;;;11.96;100.00;98983.22;6198112;23;20034;-84
2022/03/10 00:09:38;;;;;;;14.18;6.80;;;;;;;11.79;100.00;98982.84;6195987;23;20008;-85
2022/03/10 00:12:04;;;;;;;14.25;7.43;;;;;;;11.70;100.00;98948.88;6196149;23;20062;-85
2022/03/10 00:14:30;;;;;;;15.77;6.63;;;;;;;11.96;100.00;98968.25;6220236;23;20008;-86
2022/03/10 00:16:56;;;;;;;15.68;6.80;;;;;;;11.62;100.00;98929.88;6193850;23;20012;-86
2022/03/10 00:19:22;;;;;;;13.32;7.00;;;;;;;11.91;100.00;98956.72;6192846;23;20013;-86
2022/03/10 00:21:49;;;;;;;18.27;7.38;;;;;;;11.88;100.00;98949.25;6168885;23;20071;-85
2022/03/10 00:24:16;;;;;;;17.20;7.78;;;;;;;11.80;100.00;98961.63;6220391;23;20464;-86
2022/03/10 00:26:42;;;;;;;13.18;6.57;;;;;;;11.93;100.00;98978.38;6167343;23;20021;-84
2022/03/10 00:29:08;;;;;;;15.27;6.53;;;;;;;11.69;100.00;98941.19;6195134;23;20059;-88
2022/03/10 00:31:34;;;;;;;13.13;6.25;;;;;;;11.90;100.00;98974.34;6195024;23;20008;-84
2022/03/10 00:34:01;;;;;;;15.50;7.10;;;;;;;11.89;100.00;98971.91;6194116;23;20099;-87
2022/03/10 00:36:27;;;;;;;14.07;6.88;;;;;;;11.84;100.00;98969.88;6220770;23;20342;-85
2022/03/10 00:38:53;;;;;;;19.60;6.82;;;;;;;11.52;100.00;98951.31;6167754;23;20044;-87
2022/03/10 00:41:19;;;;;;;15.30;7.20;;;;;;;11.52;100.00;98948.69;6168854;23;20027;-84
2022/03/10 00:43:46;;;;;;;18.42;7.60;;;;;;;11.63;100.00;98984.06;6193588;23;20020;-85
2022/03/10 00:46:12;;;;;;;19.73;7.50;;;;;;;11.40;100.00;98948.50;6193272;23;20013;-86
2022/03/10 00:48:37;;;;;;;18.77;7.75;;;;;;;11.57;100.00;98954.94;6192914;23;20025;-86
2022/03/10 00:51:04;;;;;;;23.98;8.35;;;;;;;11.71;100.00;98986.50;6194031;23;20062;-85
2022/03/10 00:53:29;;;;;;;19.67;7.10;;;;;;;11.67;100.00;98964.25;6193924;23;20018;-88
2022/03/10 00:55:55;;;;;;;16.08;7.00;;;;;;;11.70;100.00;98969.09;6194105;23;20083;-85
2022/03/10 00:58:21;;;;;;;14.52;7.72;;;;;;;11.68;100.00;98963.25;6220683;23;20068;-86
2022/03/10 01:00:46;;;;;;;14.75;7.13;;;;;;;11.84;100.00;98970.72;6170095;23;20040;-86
2022/03/10 01:03:12;;;;;;;15.70;6.78;;;;;;;11.67;100.00;98943.22;6196361;23;20087;-85
2022/03/10 01:05:37;;;;;;;21.17;8.27;;;;;;;11.62;100.00;98958.81;6170491;23;20359;-85
2022/03/10 01:08:03;;;;;;;13.73;7.65;;;;;;;11.63;100.00;98955.16;6221344;23;20015;-86
2022/03/10 01:10:30;;;;;;;17.45;7.72;;;;;;;11.54;100.00;98949.28;6169355;23;20020;-84
2022/03/10 01:12:56;;;;;;;16.55;7.60;;;;;;;11.68;100.00;98966.66;6167437;23;20446;-87
2022/03/10 01:15:25;;;;;;;12.05;7.13;;;;;;;11.60;100.00;98968.72;6192898;23;20014;-84
2022/03/10 01:17:51;;;;;;;17.17;6.70;;;;;;;11.90;100.00;98994.56;6192415;23;20016;-84
2022/03/10 01:20:17;;;;;;;13.10;7.63;;;;;;;11.83;100.00;98974.34;6219085;23;20439;-84
2022/03/10 01:22:43;;;;;;;18.00;7.30;;;;;;;12.10;100.00;98990.13;6195649;23;20019;-84
2022/03/10 01:25:09;;;;;;;18.67;7.72;;;;;;;12.10;100.00;98984.84;6224952;23;20012;-84
2022/03/10 01:27:54;;;;;;;19.05;6.97;;;;;;;12.21;100.00;98983.41;6202769;23;20036;-86
2022/03/10 01:30:39;;;;;;;15.32;8.00;;;;;;;11.98;100.00;98957.50;6223417;23;20023;-85
2022/03/10 01:33:23;;;;;;;10.90;6.85;;;;;;;12.00;100.00;98958.16;6220356;23;20513;-86
2022/03/10 01:36:06;;;;;;;15.02;7.68;;;;;;;12.25;100.00;98966.19;6220404;23;20022;-85
2022/03/10 01:38:50;;;;;;;12.75;7.03;;;;;;;12.10;100.00;98958.53;6200028;23;20509;-85
2022/03/10 01:41:35;;;;;;;18.63;7.25;;;;;;;12.13;100.00;98968.66;6222336;23;20031;-83
2022/03/10 01:44:21;;;;;;;16.92;7.60;;;;;;;11.91;100.00;98948.84;6197323;23;20027;-86
2022/03/10 01:47:10;;;;;;;15.45;7.30;;;;;;;11.98;100.00;98960.97;6197955;23;20023;-83
2022/03/10 01:49:54;;;;;;;13.75;6.35;;;;;;;12.11;100.00;98975.16;6197723;23;20066;-86
2022/03/10 01:52:40;;;;;;;16.83;6.63;;;;;;;12.17;100.00;98978.75;6210472;23;20445;-87
2022/03/10 01:55:24;;;;;;;11.13;7.18;;;;;;;11.95;100.00;98963.19;6197260;23;20159;-85
2022/03/10 01:58:10;;;;;;;20.67;7.88;;;;;;;11.85;100.00;98953.91;6221087;23;20455;-85
2022/03/10 02:00:54;;;;;;;12.80;7.18;;;;;;;11.88;100.00;98971.09;6200229;23;20462;-87
2022/03/10 02:03:40;;;;;;;14.73;7.00;;;;;;;11.88;100.00;98954.50;6197313;23;20026;-84
2022/03/10 02:06:24;;;;;;;16.17;7.18;;;;;;;11.86;100.00;98952.91;6218561;23;20027;-84
2022/03/10 02:12:12;;;;;;;13.00;6.32;;;;;;;11.77;100.00;98974.34;6219873;23;20082;-87
2022/03/10 02:18:14;;;;;;;18.08;7.85;;;;;;;11.45;100.00;98969.72;6219575;23;20478;-87
2022/03/10 02:20:57;;;;;;;20.27;8.13;;;;;;;11.25;100.00;98961.81;6219527;23;20026;-85
2022/03/10 02:23:43;;;;;;;20.33;8.40;;;;;;;11.09;100.00;98953.28;6196716;23;20035;-84
2022/03/10 02:26:27;;;;;;;18.15;8.30;;;;;;;10.89;100.00;98963.78;6196681;23;20083;-84
2022/03/10 02:29:11;;;;;;;17.23;8.55;;;;;;;10.84;100.00;98971.44;6219015;23;20403;-84
2022/03/10 02:31:56;;;;;;;19.10;8.57;;;;;;;10.90;100.00;98960.13;6219101;23;20051;-86
2022/03/10 02:34:41;;;;;;;18.42;8.40;;;;;;;11.08;100.00;98982.41;6219171;23;20027;-85
2022/03/10 02:37:25;;;;;;;16.58;8.20;;;;;;;11.13;100.00;98953.72;6197028;23;20342;-84
2022/03/10 02:40:10;;;;;;;19.75;8.75;;;;;;;11.22;100.00;98960.41;6204297;23;20077;-86
2022/03/10 02:42:55;;;;;;;18.00;8.18;;;;;;;11.27;100.00;98968.50;6228826;23;20086;-85
2022/03/10 02:45:39;;;;;;;14.93;8.73;;;;;;;11.17;100.00;98947.03;6196886;23;20023;-83
2022/03/10 02:48:25;;;;;;;16.13;8.35;;;;;;;11.30;100.00;98954.16;6218343;23;20024;-85
2022/03/10 02:51:09;;;;;;;22.83;8.13;;;;;;;11.50;100.00;98953.34;6218494;23;20026;-85
2022/03/10 02:53:53;;;;;;;19.33;8.43;;;;;;;11.57;100.00;98957.56;6218818;23;20031;-85
2022/03/10 02:56:37;;;;;;;15.45;7.50;;;;;;;11.35;100.00;98941.22;6218398;23;20197;-84
2022/03/10 02:59:21;;;;;;;16.58;8.10;;;;;;;11.53;100.00;98963.44;6218341;23;20104;-85
2022/03/10 03:02:05;;;;;;;16.33;9.27;;;;;;;11.63;100.00;98973.56;6217965;23;20024;-86
2022/03/10 03:04:50;;;;;;;16.45;8.43;;;;;;;11.74;100.00;98970.31;6195681;23;20079;-83
2022/03/10 03:07:34;;;;;;;17.85;8.45;;;;;;;11.71;100.00;98933.91;6218076;23;20402;-85
2022/03/10 03:10:18;;;;;;;16.45;8.30;;;;;;;11.60;100.00;98935.34;6196463;23;20354;-84
2022/03/10 03:13:09;;;;;;;19.02;8.25;;;;;;;11.80;100.00;98959.00;6197181;23;20465;-85
2022/03/10 03:15:53;;;;;;;19.77;8.30;;;;;;;11.58;100.00;98938.16;6196376;23;20023;-84
2022/03/10 03:18:37;;;;;;;17.30;8.50;;;;;;;11.53;100.00;98963.44;6196284;23;20034;-86
2022/03/10 03:21:21;;;;;;;18.48;8.40;;;;;;;11.43;100.00;98958.59;6217915;23;20027;-84
2022/03/10 03:24:05;;;;;;;17.95;8.18;;;;;;;11.17;100.00;98947.03;6217910;23;20462;-86
2022/03/10 03:26:49;;;;;;;20.52;9.23;;;;;;;10.99;100.00;98932.66;6195407;23;20027;-81
2022/03/10 03:29:34;;;;;;;16.90;9.07;;;;;;;11.05;100.00;98967.03;6218196;23;20071;-84
2022/03/10 03:32:18;;;;;;;21.33;9.90;;;;;;;10.83;100.00;98951.44;6219367;23;20031;-86
2022/03/10 03:35:02;;;;;;;17.70;9.00;;;;;;;10.75;100.00;98968.19;6218571;23;20020;-85
2022/03/10 03:37:46;;;;;;;19.70;9.30;;;;;;;10.50;100.00;98955.56;6218407;23;20355;-85
2022/03/10 03:40:40;;;;;;;22.98;10.10;;;;;;;10.43;100.00;98968.66;6196199;23;20095;-84
2022/03/10 03:43:25;;;;;;;26.75;10.05;;;;;;;10.29;100.00;98951.22;6194397;23;20346;-85
2022/03/10 03:46:10;;;;;;;22.60;9.98;;;;;;;10.35;100.00;98974.03;6194393;23;20023;-84
2022/03/10 03:48:55;;;;;;;22.83;9.73;;;;;;;10.25;100.00;98957.84;6217222;23;20091;-84
2022/03/10 03:51:39;;;;;;;20.92;9.68;;;;;;;10.39;100.00;98983.13;6216956;23;20111;-84
2022/03/10 03:54:24;;;;;;;19.27;9.65;;;;;;;10.56;100.00;98990.72;6217364;23;20094;-83
2022/03/10 03:57:08;;;;;;;22.00;10.77;;;;;;;10.62;100.00;98982.06;6216870;23;20027;-82
2022/03/10 03:59:52;;;;;;;22.60;10.63;;;;;;;10.56;100.00;98967.09;6216658;23;20570;-84
2022/03/10 04:02:37;;;;;;;27.00;10.98;;;;;;;10.79;100.00;98979.06;6194618;23;20155;-83
2022/03/10 04:05:04;;;;;;;24.00;9.48;;;;;;;10.79;100.00;98958.06;6191490;23;20033;-83
2022/03/10 04:07:29;;;;;;;18.98;9.57;;;;;;;11.11;100.00;98976.75;6191455;23;20048;-83
2022/03/10 04:09:55;;;;;;;16.17;9.85;;;;;;;10.95;100.00;98962.97;6192309;23;20098;-84
2022/03/10 04:12:21;;;;;;;18.77;10.05;;;;;;;11.11;100.00;98988.06;6192086;23;20028;-83
2022/03/10 04:14:46;;;;;;;22.17;9.82;;;;;;;11.12;100.00;98978.38;6192345;23;20443;-83
2022/03/10 04:17:13;;;;;;;18.33;10.00;;;;;;;11.08;100.00;98987.66;6191888;23;20021;-84
2022/03/10 04:19:39;;;;;;;19.90;10.13;;;;;;;11.00;100.00;98970.25;6165786;23;20446;-83
2022/03/10 04:22:04;;;;;;;21.70;10.07;;;;;;;10.84;100.00;98964.34;6191873;23;20009;-84
2022/03/10 04:24:30;;;;;;;20.23;11.32;;;;;;;11.13;100.00;98990.50;6191740;23;20050;-83
2022/03/10 04:26:56;;;;;;;20.77;9.93;;;;;;;11.16;100.00;98982.19;6192107;23;20013;-85
2022/03/10 04:29:21;;;;;;;20.45;9.25;;;;;;;11.04;100.00;98962.81;6219577;23;20394;-84
2022/03/10 04:31:47;;;;;;;18.75;9.07;;;;;;;11.20;100.00;98962.44;6192794;23;20028;-84
2022/03/10 04:34:13;;;;;;;19.48;8.68;;;;;;;11.39;100.00;98981.00;6194927;23;20036;-85
2022/03/10 04:36:39;;;;;;;20.58;10.00;;;;;;;11.40;100.00;98987.91;6222157;23;20036;-84
2022/03/10 04:39:05;;;;;;;16.00;9.45;;;;;;;11.24;100.00;98955.75;6194620;23;20009;-84
2022/03/10 04:41:30;;;;;;;17.95;9.15;;;;;;;11.32;100.00;98972.31;6169740;23;20343;-84
2022/03/10 04:43:56;;;;;;;17.67;8.93;;;;;;;11.31;100.00;98970.72;6219883;23;20008;-84
2022/03/10 04:46:23;;;;;;;18.58;9.90;;;;;;;11.32;100.00;98956.56;6192843;23;20019;-86
2022/03/10 04:48:49;;;;;;;15.57;9.38;;;;;;;11.25;100.00;98972.31;6167732;23;20439;-84
2022/03/10 04:51:15;;;;;;;19.27;9.63;;;;;;;11.53;100.00;98979.22;6192967;23;20008;-85
2022/03/10 04:53:40;;;;;;;19.90;10.50;;;;;;;11.37;100.00;98967.28;6219646;23;20072;-84
2022/03/10 04:56:07;;;;;;;18.45;8.93;;;;;;;11.53;100.00;98971.34;6218960;23;20335;-84
2022/03/10 04:58:34;;;;;;;23.13;10.02;;;;;;;11.45;100.00;98961.00;6219071;23;20538;-85
2022/03/10 05:00:59;;;;;;;15.65;9.43;;;;;;;11.49;100.00;98968.28;6192489;23;20008;-84
2022/03/10 05:03:25;;;;;;;21.90;10.80;;;;;;;11.58;100.00;98984.69;6192883;23;20031;-83
2022/03/10 05:05:50;;;;;;;15.93;9.43;;;;;;;11.52;100.00;98972.34;6192668;23;20063;-85
2022/03/10 05:08:16;;;;;;;21.45;8.80;;;;;;;11.45;100.00;98961.81;6218736;23;20019;-85
2022/03/10 05:10:42;;;;;;;19.02;9.68;;;;;;;11.37;100.00;98960.22;6218622;23;20016;-84
2022/03/10 05:13:07;;;;;;;19.02;9.02;;;;;;;11.36;100.00;98952.50;6219247;23;20013;-85
2022/03/10 05:15:33;;;;;;;18.77;10.00;;;;;;;11.46;100.00;98960.81;6192755;23;20008;-86
2022/03/10 05:18:03;;;;;;;17.48;9.30;;;;;;;11.56;100.00;98976.97;6192747;23;20016;-86
2022/03/10 05:20:30;;;;;;;16.27;9.43;;;;;;;11.64;100.00;98969.91;6193107;23;20131;-86
2022/03/10 05:22:57;;;;;;;21.05;9.80;;;;;;;11.49;100.00;98962.22;6168221;23;20017;-86
2022/03/10 05:25:35;;;;;;;26.50;10.88;;;;;;;11.57;100.00;98936.53;6219291;23;20064;-85
2022/03/10 05:28:03;;;;;;;19.98;9.45;;;;;;;11.61;100.00;98949.28;6168234;23;20347;-86
2022/03/10 05:30:28;;;;;;;17.02;9.27;;;;;;;11.56;100.00;98923.59;6220046;23;20016;-87
2022/03/10 05:32:54;;;;;;;16.92;9.00;;;;;;;11.55;100.00;98951.69;6220792;23;20008;-85
2022/03/10 05:35:20;;;;;;;23.73;9.77;;;;;;;11.65;100.00;98940.78;6194105;23;20044;-87
2022/03/10 05:37:48;;;;;;;15.48;9.32;;;;;;;11.62;100.00;98958.81;6220348;23;20012;-87
2022/03/10 05:40:23;;;;;;;12.52;8.52;;;;;;;11.78;100.00;98952.31;6192541;23;20016;-85
2022/03/10 05:42:51;;;;;;;14.40;8.18;;;;;;;11.88;100.00;98957.16;6219129;23;20071;-85
2022/03/10 05:45:20;;;;;;;15.95;9.00;;;;;;;11.60;100.00;98931.91;6193085;23;20087;-85
2022/03/10 05:47:47;;;;;;;15.05;8.90;;;;;;;11.66;100.00;98946.84;6194056;23;20008;-86
2022/03/10 05:50:14;;;;;;;14.73;9.93;;;;;;;11.73;100.00;98950.28;6168522;23;20108;-83
2022/03/10 05:52:39;;;;;;;17.55;10.07;;;;;;;11.66;100.00;98926.63;6193559;23;20450;-85
2022/03/10 05:55:06;;;;;;;18.95;10.32;;;;;;;11.70;100.00;98940.16;6219231;23;20088;-86
2022/03/10 05:57:33;;;;;;;19.75;9.60;;;;;;;11.56;100.00;98932.28;6219286;23;20012;-84
2022/03/10 05:59:58;;;;;;;21.63;10.40;;;;;;;11.47;100.00;98907.25;6219181;23;20013;-86
2022/03/10 06:02:24;;;;;;;17.42;9.38;;;;;;;11.59;100.00;98946.84;6167295;23;20013;-84
2022/03/10 06:04:50;;;;;;;18.13;9.35;;;;;;;11.61;100.00;98923.00;6218804;23;20118;-86
2022/03/10 06:07:16;;;;;;;17.20;10.38;;;;;;;11.70;100.00;98942.81;6167521;23;20491;-83
2022/03/10 06:09:43;;;;;;;16.48;9.90;;;;;;;11.84;100.00;98952.31;6192310;23;20008;-84
2022/03/10 06:12:09;;;;;;;14.85;8.73;;;;;;;11.78;100.00;98949.69;6168194;23;20469;-85
2022/03/10 06:14:38;;;;;;;15.75;8.93;;;;;;;11.70;100.00;98932.28;6220614;23;20087;-83
2022/03/10 06:17:04;;;;;;;16.98;9.80;;;;;;;11.75;100.00;98929.84;6207047;23;20442;-84
2022/03/10 06:19:29;;;;;;;22.20;10.10;;;;;;;11.42;100.00;98901.78;6207059;23;20052;-83
2022/03/10 06:21:55;;;;;;;17.67;8.73;;;;;;;11.83;100.00;98949.84;6210431;23;20016;-83
2022/03/10 06:24:21;;;;;;;18.63;10.75;;;;;;;11.67;100.00;98938.75;6182136;23;20020;-83
2022/03/10 06:26:48;;;;;;;19.17;9.20;;;;;;;11.75;100.00;98929.84;6225225;23;20044;-83
2022/03/10 06:29:14;;;;;;;18.48;9.30;;;;;;;11.69;100.00;98914.91;6196936;23;20326;-85
2022/03/10 06:31:40;;;;;;;16.48;10.00;;;;;;;11.77;100.00;98933.06;6200650;23;20060;-85
2022/03/10 06:34:06;;;;;;;19.40;10.77;;;;;;;11.74;100.00;98930.84;6176634;23;20016;-84
2022/03/10 06:36:32;;;;;;;17.55;9.57;;;;;;;11.74;100.00;98927.44;6197467;23;20013;-84
2022/03/10 06:38:58;;;;;;;16.85;9.45;;;;;;;11.65;100.00;98911.84;6175395;23;20024;-84
2022/03/10 06:41:23;;;;;;;16.25;9.85;;;;;;;11.82;100.00;98922.78;6226396;23;20382;-85
2022/03/10 06:43:49;;;;;;;18.73;10.40;;;;;;;11.71;100.00;98929.47;6194230;23;20017;-80
2022/03/10 06:46:15;;;;;;;17.15;10.50;;;;;;;11.77;100.00;98948.84;6225584;23;20015;-82
2022/03/10 06:48:41;;;;;;;19.80;9.93;;;;;;;11.84;100.00;98920.75;6176382;23;20008;-80
2022/03/10 06:51:07;;;;;;;17.27;10.38;;;;;;;12.03;100.00;98925.38;6171776;23;20031;-80
2022/03/10 06:53:33;;;;;;;23.17;13.00;;;;;;;11.93;100.00;98905.56;6224429;23;20046;-82
2022/03/10 06:55:59;;;;;;;19.20;11.52;;;;;;;11.82;100.00;98890.38;6169647;23;20009;-81
2022/03/10 06:58:25;;;;;;;18.17;11.50;;;;;;;12.01;100.00;98912.44;6196896;23;20013;-80
2022/03/10 07:00:51;;;;;;;14.85;9.18;;;;;;;11.68;100.00;98903.56;6192036;23;20332;-81
2022/03/10 07:03:17;;;;;;;15.45;9.65;;;;;;;12.01;100.00;98917.69;6220430;23;20068;-80
2022/03/10 07:05:44;;;;;;;17.50;9.45;;;;;;;12.08;100.00;98942.16;6192107;23;20068;-80
2022/03/10 07:08:11;;;;;;;17.85;9.75;;;;;;;12.11;100.00;98928.59;6167646;23;20048;-82
2022/03/10 07:10:37;;;;;;;15.98;8.70;;;;;;;12.25;100.00;98933.81;6191513;23;20016;-81
2022/03/10 07:13:03;;;;;;;15.57;9.65;;;;;;;11.87;100.00;98930.03;6218643;23;20009;-84
2022/03/10 07:15:28;;;;;;;18.70;8.73;;;;;;;11.96;100.00;98914.81;6190626;23;20016;-81
2022/03/10 07:17:54;;;;;;;18.90;9.75;;;;;;;12.03;100.00;98923.56;6165796;23;20016;-81
2022/03/10 07:20:20;;;;;;;13.88;9.00;;;;;;;12.09;100.00;98920.09;6193221;23;20013;-81
2022/03/10 07:22:47;;;;;;;13.43;9.70;;;;;;;11.97;100.00;98917.25;6199156;23;20004;-83
2022/03/10 07:25:13;;;;;;;18.55;9.88;;;;;;;11.96;100.00;98914.81;6196851;23;20012;-81
2022/03/10 07:27:38;;;;;;;21.42;10.35;;;;;;;11.91;100.00;98920.72;6193022;23;20016;-81
2022/03/10 07:30:05;;;;;;;16.52;9.48;;;;;;;12.10;100.00;98932.22;6164038;23;20008;-81
2022/03/10 07:32:30;;;;;;;19.42;10.10;;;;;;;12.13;100.00;98947.59;6188631;23;20071;-81
2022/03/10 07:34:56;;;;;;;15.90;10.07;;;;;;;12.16;100.00;98942.94;6215730;23;20005;-80
2022/03/10 07:37:22;;;;;;;18.58;10.90;;;;;;;12.00;100.00;98945.00;6217374;23;20012;-79
2022/03/10 07:39:47;;;;;;;16.90;9.73;;;;;;;11.93;100.00;98957.34;6191737;23;20016;-81
2022/03/10 07:42:15;;;;;;;15.77;10.85;;;;;;;12.00;100.00;98955.50;6218736;23;20116;-80
2022/03/10 07:44:41;;;;;;;18.08;10.02;;;;;;;11.94;100.00;98954.50;6192926;23;20027;-80
2022/03/10 07:47:07;;;;;;;16.55;9.85;;;;;;;12.07;100.00;98958.97;6193097;23;20016;-80
2022/03/10 07:49:33;;;;;;;17.50;10.32;;;;;;;12.06;100.00;98962.59;6219503;23;20068;-79
2022/03/10 07:52:00;;;;;;;19.70;9.93;;;;;;;12.14;100.00;98953.69;6192108;23;20008;-82
2022/03/10 07:54:28;;;;;;;16.00;9.98;;;;;;;12.20;100.00;98962.56;6166903;23;20067;-80
2022/03/10 07:56:54;;;;;;;20.63;9.70;;;;;;;12.20;100.00;98947.59;6216314;23;20035;-81
2022/03/10 07:59:20;;;;;;;19.25;11.18;;;;;;;12.36;100.00;98942.88;6191112;23;20351;-80
2022/03/10 08:01:45;;;;;;;19.65;10.13;;;;;;;12.65;100.00;98948.63;6190711;23;20013;-81
2022/03/10 08:04:12;;;;;;;19.15;10.93;;;;;;;12.57;100.00;98944.41;6218547;23;20095;-80
2022/03/10 08:06:37;;;;;;;17.27;10.35;;;;;;;12.59;100.00;98934.50;6218539;23;20099;-82
2022/03/10 08:09:06;;;;;;;23.77;10.20;;;;;;;12.73;100.00;98942.31;6219563;23;20016;-81
2022/03/10 08:11:32;;;;;;;21.17;10.82;;;;;;;12.75;100.00;98935.81;6193023;23;20012;-82
2022/03/10 08:13:59;;;;;;;17.38;10.15;;;;;;;12.93;100.00;98940.34;6217585;23;20028;-82
2022/03/10 08:16:25;;;;;;;20.00;10.43;;;;;;;12.71;100.00;98938.06;6217247;23;20020;-82
2022/03/10 08:18:50;;;;;;;20.85;10.40;;;;;;;12.71;100.00;98945.94;6194565;23;20012;-80
2022/03/10 08:21:17;;;;;;;17.63;10.07;;;;;;;12.71;100.00;98942.53;6220559;23;20071;-80
2022/03/10 08:23:42;;;;;;;18.02;9.95;;;;;;;13.04;100.00;98946.78;6193199;23;20032;-80
2022/03/10 08:26:17;;;;;;;23.50;11.27;;;;;;;13.28;100.00;98958.38;6167630;23;20031;-86
2022/03/10 08:28:45;;;;;;;18.33;11.13;;;;;;;13.63;100.00;98957.09;6170805;23;20047;-85
2022/03/10 08:31:11;;;;;;;16.92;10.02;;;;;;;13.63;100.00;98951.03;6194242;23;20012;-86
2022/03/10 08:33:37;;;;;;;19.08;10.32;;;;;;;14.14;100.00;98963.09;6193412;23;20016;-86
2022/03/10 08:36:07;;;;;;;14.57;9.63;;;;;;;14.21;100.00;98949.03;6169776;23;20024;-87
2022/03/10 08:38:33;;;;;;;18.17;9.70;;;;;;;14.46;100.00;98956.06;6199563;23;20008;-88
2022/03/10 08:40:59;;;;;;;15.85;9.40;;;;;;;14.22;100.00;98951.44;6195867;23;20048;-88
2022/03/10 08:43:28;;;;;;;15.13;9.40;;;;;;;14.32;100.00;98961.50;6220758;23;20028;-87
2022/03/10 08:45:56;;;;;;;17.08;9.32;;;;;;;14.23;100.00;98953.06;6171097;23;20099;-88
2022/03/10 08:48:22;;;;;;;17.80;9.43;;;;;;;14.34;100.00;98950.72;6145407;23;20021;-87
2022/03/10 08:50:48;;;;;;;14.55;9.05;;;;;;;14.06;100.00;98952.06;6195424;23;20019;-86
2022/03/10 08:53:14;;;;;;;12.82;9.05;;;;;;;14.25;100.00;98950.22;6171057;23;20013;-88
2022/03/10 08:55:40;;;;;;;15.82;9.48;;;;;;;14.18;100.00;98952.13;6171457;23;20722;-86
2022/03/10 08:58:06;;;;;;;15.40;9.15;;;;;;;14.00;100.00;98937.91;6194369;23;20008;-85
2022/03/10 09:00:32;;;;;;;12.35;8.82;;;;;;;14.20;100.00;98934.25;6170240;23;20052;-88
2022/03/10 09:03:00;;;;;;;16.95;9.32;;;;;;;14.24;100.00;98922.19;6221854;23;20355;-87
2022/03/10 09:05:26;;;;;;;14.65;9.00;;;;;;;14.73;100.00;98947.81;6194529;23;20019;-87
2022/03/10 09:07:52;;;;;;;13.90;9.63;;;;;;;14.38;100.00;98913.09;6194338;23;20059;-88
2022/03/10 09:10:18;;;;;;;16.05;9.90;;;;;;;14.73;100.00;98942.53;6169138;23;20020;-87
2022/03/10 09:12:44;;;;;;;17.88;10.05;;;;;;;14.89;100.00;98938.47;6169427;23;20076;-85
2022/03/10 09:15:10;;;;;;;18.35;9.88;;;;;;;14.90;100.00;98935.59;6217557;23;20008;-85
2022/03/10 09:17:36;;;;;;;12.48;9.05;;;;;;;14.99;100.00;98925.50;6167094;23;20017;-85
2022/03/10 09:20:04;;;;;;;19.35;10.38;;;;;;;14.83;100.00;98934.88;6166141;23;20391;-85
2022/03/10 09:22:31;;;;;;;13.90;8.23;;;;;;;14.46;100.00;98921.72;6218040;23;20009;-86
2022/03/10 09:24:57;;;;;;;12.75;8.95;;;;;;;14.42;100.00;98924.00;6219144;23;20013;-87
2022/03/10 09:27:23;;;;;;;13.10;8.60;;;;;;;14.12;100.00;98916.84;6167258;23;20431;-88
2022/03/10 09:29:49;;;;;;;16.42;9.70;;;;;;;14.41;100.00;98925.84;6167520;23;20019;-86
2022/03/10 09:32:15;;;;;;;17.20;9.02;;;;;;;14.54;100.00;98901.09;6166803;23;20027;-87
2022/03/10 09:34:41;;;;;;;13.57;8.43;;;;;;;14.69;100.00;98913.91;6192860;23;20009;-86
2022/03/10 09:37:07;;;;;;;11.90;8.25;;;;;;;14.84;100.00;98900.31;6192301;23;20023;-86
2022/03/10 09:39:33;;;;;;;12.82;8.00;;;;;;;14.41;100.00;98902.09;6217017;23;20040;-85
2022/03/10 09:42:03;;;;;;;15.52;7.55;;;;;;;14.18;100.00;98912.53;6165111;23;20020;-84
2022/03/10 09:44:30;;;;;;;12.15;7.28;;;;;;;14.14;100.00;98907.66;6164631;23;20022;-85
2022/03/10 09:47:02;;;;;;;14.35;7.57;;;;;;;14.05;100.00;98901.09;6215994;23;20156;-86
2022/03/10 09:49:28;;;;;;;13.88;7.32;;;;;;;14.42;100.00;98897.59;6164520;23;20043;-85
2022/03/10 09:51:55;;;;;;;24.23;11.00;;;;;;;14.48;100.00;98909.94;6191564;23;20023;-86
2022/03/10 09:54:21;;;;;;;14.32;8.40;;;;;;;14.86;100.00;98905.38;6219143;23;20013;-87
2022/03/10 09:56:47;;;;;;;17.85;8.20;;;;;;;15.18;100.00;98883.94;6168477;23;20331;-90
2022/03/10 09:59:13;;;;;;;19.95;8.25;;;;;;;14.53;100.00;98893.38;6169275;23;20103;-83
2022/03/10 10:01:39;;;;;;;19.33;8.45;;;;;;;14.36;100.00;98843.03;6191688;23;20431;-83
2022/03/10 10:04:06;;;;;;;21.65;9.02;;;;;;;14.60;100.00;98885.38;6192243;23;20017;-85
2022/03/10 10:06:35;;;;;;;12.90;9.02;;;;;;;14.32;100.00;98903.41;6167391;23;20483;-85
2022/03/10 10:09:00;;;;;;;13.98;8.95;;;;;;;14.51;100.00;98892.81;6167747;23;20047;-84
2022/03/10 10:11:34;;;;;;;17.33;8.25;;;;;;;14.45;100.00;98896.34;6193003;23;20427;-83
2022/03/10 10:14:00;;;;;;;20.83;10.30;;;;;;;14.75;100.00;98900.88;6190898;23;20342;-83
2022/03/10 10:16:27;;;;;;;31.38;13.43;;;;;;;15.14;100.00;98903.94;6218677;23;20035;-83
2022/03/10 10:18:57;;;;;;;22.58;10.18;;;;;;;14.78;100.00;98893.28;6190949;23;20013;-83
2022/03/10 10:21:25;;;;;;;20.92;12.63;;;;;;;14.81;100.00;98900.75;6192236;23;20339;-85
2022/03/10 10:23:53;;;;;;;18.33;9.48;;;;;;;14.87;100.00;98896.41;6190532;23;20454;-84
2022/03/10 10:26:20;;;;;;;15.25;9.45;;;;;;;14.96;100.00;98870.47;6217484;23;20491;-83
2022/03/10 10:28:50;;;;;;;23.92;12.25;;;;;;;15.03;100.00;98875.66;6165785;23;20024;-84
2022/03/10 10:31:17;;;;;;;18.45;9.55;;;;;;;15.07;100.00;98882.91;6165791;23;20017;-84
2022/03/10 10:34:03;;;;;;;17.13;10.70;;;;;;;15.14;100.00;98854.50;6165945;23;20065;-84
2022/03/10 10:36:34;;;;;;;16.20;8.65;;;;;;;15.70;99.48;98883.25;6216858;23;20015;-82
2022/03/10 10:39:15;;;;;;;29.70;11.73;;;;;;;15.52;99.37;98884.16;6190249;23;20016;-83
2022/03/10 10:41:45;;;;;;;18.30;9.38;;;;;;;15.84;98.34;98878.50;6165378;23;20021;-84
2022/03/10 10:44:16;;;;;;;28.70;13.52;;;;;;;15.50;99.10;98853.72;6190251;23;20012;-83
2022/03/10 10:46:49;;;;;;;19.15;9.63;;;;;;;15.75;98.10;98865.88;6190709;23;20008;-84
2022/03/10 10:49:17;;;;;;;10.38;7.18;;;;;;;15.73;98.45;98878.53;6165449;23;20024;-84
2022/03/10 10:51:48;;;;;;;14.27;8.50;;;;;;;15.96;97.80;98873.22;6191791;23;20012;-86
2022/03/10 10:54:23;;;;;;;14.00;8.60;;;;;;;16.15;96.86;98886.28;6168480;23;20048;-85
2022/03/10 10:56:49;;;;;;;21.88;11.75;;;;;;;16.08;97.52;98886.41;6221557;23;20005;-85
2022/03/10 10:59:38;;;;;;;15.10;8.32;;;;;;;16.12;97.47;98844.41;6169819;23;20016;-85
2022/03/10 11:02:11;;;;;;;19.92;11.48;;;;;;;16.12;97.70;98873.53;6222166;23;20040;-84
2022/03/10 11:04:40;;;;;;;20.77;11.02;;;;;;;16.28;96.81;98834.88;6190334;23;20095;-83
2022/03/10 11:07:09;;;;;;;17.65;9.00;;;;;;;16.75;95.67;98859.56;6191567;23;20162;-84
2022/03/10 11:09:35;;;;;;;15.27;10.02;;;;;;;16.61;94.86;98856.41;6166029;23;20067;-84
2022/03/10 11:12:01;;;;;;;26.50;12.50;;;;;;;16.21;96.06;98840.34;6165148;23;20008;-84
2022/03/10 11:14:28;;;;;;;16.30;10.00;;;;;;;16.17;96.39;98846.34;6190571;23;20013;-83
2022/03/10 11:16:57;;;;;;;17.30;8.98;;;;;;;16.34;95.34;98863.09;6189462;23;20083;-84
2022/03/10 11:19:25;;;;;;;14.90;9.00;;;;;;;16.30;96.23;98861.94;6216341;23;20423;-83
2022/03/10 11:22:11;;;;;;;17.48;10.45;;;;;;;16.16;95.83;98865.91;6164228;23;20051;-83
2022/03/10 11:24:57;;;;;;;16.55;8.63;;;;;;;16.73;95.80;98872.25;6165640;23;20021;-85
2022/03/10 11:27:35;;;;;;;13.85;8.75;;;;;;;16.66;95.83;98865.22;6189290;23;20016;-83
2022/03/10 11:30:04;;;;;;;14.10;9.10;;;;;;;16.84;95.61;98847.50;6188962;23;20435;-83
2022/03/10 11:32:31;;;;;;;22.08;11.05;;;;;;;16.70;95.43;98855.78;6215793;23;20328;-81
2022/03/10 11:35:00;;;;;;;12.93;7.57;;;;;;;16.65;94.94;98849.59;6215626;23;20008;-81
2022/03/10 11:37:41;;;;;;;8.15;6.85;;;;;;;16.60;94.88;98857.44;6188471;23;20019;-84
2022/03/10 11:40:38;;;;;;;15.73;8.48;;;;;;;16.46;96.46;98848.97;6189207;23;20012;-81